Time;durP1;ratioP1;P1;durP2;ratioP2;P2;SDS_P1;SDS_P2;PMS_P1;PMS_P2;Temp;Humidity;BMP_temperature;BMP_pressure;BME280_temperature;BME280_humidity;BME280_pressure;Samples;Min_cycle;Max_cycle;Signal;HPM_P1;HPM_P2
2021/11/28 00:01:15;;;;;;;9.68;3.83;;;3.70;99.90;;;1.89;92.81;99046.56;2566237;30;136972;-40
2021/11/28 00:03:43;;;;;;;8.73;4.25;;;3.70;99.90;;;1.88;92.71;99051.09;2567753;30;138232;-40
2021/11/28 00:06:30;;;;;;;8.10;4.43;;;3.60;99.90;;;1.83;93.23;99046.28;2565284;30;137578;-40
2021/11/28 00:11:30;;;;;;;6.80;3.90;;;3.60;99.90;;;1.87;93.07;99046.75;2566979;30;137514;-40
2021/11/28 00:16:30;;;;;;;8.63;4.20;;;3.60;99.90;;;1.83;93.33;99048.16;2568475;30;136750;-40
2021/11/28 00:18:57;;;;;;;8.25;4.43;;;3.60;99.90;;;1.84;93.38;99050.66;2568485;30;137010;-40
2021/11/28 00:21:25;;;;;;;8.95;4.13;;;3.60;99.90;;;1.84;93.65;99045.28;2566890;30;137649;-40
2021/11/28 00:23:53;;;;;;;8.40;3.70;;;3.60;99.90;;;1.83;93.27;99046.28;2567435;30;137806;-40
2021/11/28 00:26:20;;;;;;;10.45;4.20;;;3.60;99.90;;;1.79;93.55;99039.66;2567550;30;137459;-40
2021/11/28 00:28:48;;;;;;;8.48;4.10;;;3.60;99.90;;;1.80;93.54;99043.19;2566905;30;139716;-40
2021/11/28 00:31:16;;;;;;;9.82;4.50;;;3.60;99.90;;;1.76;93.54;99041.94;2567354;30;137562;-40
2021/11/28 00:33:43;;;;;;;8.75;4.18;;;3.60;99.90;;;1.77;93.99;99052.47;2567105;30;140840;-40
2021/11/28 00:36:11;;;;;;;9.65;4.35;;;3.50;99.90;;;1.71;93.85;99043.34;2567148;30;138333;-40
2021/11/28 00:38:39;;;;;;;9.27;4.05;;;3.50;99.90;;;1.73;94.37;99048.53;2567572;30;140513;-40
2021/11/28 00:41:07;;;;;;;8.10;4.07;;;3.50;99.90;;;1.74;94.82;99049.38;2567835;30;137440;-40
2021/11/28 00:43:34;;;;;;;8.90;4.10;;;3.50;99.90;;;1.73;95.70;99051.22;2567074;30;138149;-40
2021/11/28 00:46:02;;;;;;;7.68;3.65;;;3.50;99.90;;;1.65;95.86;99043.31;2567708;30;139316;-40
2021/11/28 00:48:31;;;;;;;9.10;4.13;;;3.50;99.90;;;1.71;96.05;99051.41;2566605;30;139997;-40
2021/11/28 00:54:02;;;;;;;8.43;3.92;;;3.50;99.90;;;1.69;95.67;99055.34;2568030;30;139935;-40
2021/11/28 00:56:30;;;;;;;9.25;4.45;;;3.50;99.90;;;1.74;95.32;99062.81;2568537;30;137855;-40
2021/11/28 00:58:58;;;;;;;9.25;4.22;;;3.50;99.90;;;1.74;95.29;99062.81;2567432;30;138102;-40
2021/11/28 01:01:27;;;;;;;9.93;4.50;;;3.50;99.90;;;1.70;95.41;99060.50;2568126;30;137563;-40
2021/11/28 01:03:56;;;;;;;8.10;3.92;;;3.50;99.90;;;1.70;95.43;99062.38;2569133;30;138555;-40
2021/11/28 01:06:27;;;;;;;10.00;3.97;;;3.50;99.90;;;1.69;95.44;99066.91;2567655;30;137951;-40
2021/11/28 01:08:57;;;;;;;8.70;4.20;;;3.50;99.90;;;1.69;95.43;99066.91;2567833;30;138253;-40
2021/11/28 01:11:25;;;;;;;8.40;4.30;;;3.50;99.90;;;1.60;95.89;99062.72;2567257;30;137597;-40
2021/11/28 01:13:54;;;;;;;7.38;4.00;;;3.50;99.90;;;1.60;95.88;99060.03;2567918;30;138434;-40
2021/11/28 01:16:22;;;;;;;7.30;4.00;;;3.50;99.90;;;1.65;96.11;99078.28;2567611;30;138286;-40
2021/11/28 01:18:54;;;;;;;7.22;3.72;;;3.40;99.90;;;1.65;96.06;99076.41;2569238;30;138205;-40
2021/11/28 01:21:23;;;;;;;6.68;3.45;;;3.40;99.90;;;1.63;96.05;99083.03;2567347;30;137331;-40
2021/11/28 01:23:54;;;;;;;8.82;3.90;;;3.40;99.90;;;1.61;96.25;99077.81;2568297;30;137073;-40
2021/11/28 01:26:27;;;;;;;9.35;4.20;;;3.40;99.90;;;1.68;95.58;99080.56;2566570;30;139367;-40
2021/11/28 01:28:56;;;;;;;7.78;3.72;;;3.50;99.90;;;1.64;95.84;99079.31;2567870;30;139572;-40
2021/11/28 01:31:24;;;;;;;7.03;3.60;;;3.40;99.90;;;1.65;95.94;99086.34;2567920;30;138321;-40
2021/11/28 01:33:54;;;;;;;9.30;4.15;;;3.40;99.90;;;1.63;95.80;99086.53;2568404;30;138407;-40
2021/11/28 01:36:22;;;;;;;7.25;4.32;;;3.40;99.90;;;1.62;95.77;99090.25;2565206;30;138515;-40
2021/11/28 01:38:52;;;;;;;8.23;4.40;;;3.40;99.90;;;1.62;96.06;99092.09;2566960;30;140175;-40
2021/11/28 01:41:19;;;;;;;8.23;3.88;;;3.40;99.90;;;1.58;96.11;99087.09;2568310;30;137610;-40
2021/11/28 01:43:52;;;;;;;8.20;3.92;;;3.40;99.90;;;1.58;96.33;99091.66;2568593;30;139617;-40
2021/11/28 01:46:27;;;;;;;8.07;4.05;;;3.40;99.90;;;1.52;96.49;99093.28;2566707;30;139189;-40
2021/11/28 01:48:57;;;;;;;7.30;4.13;;;3.40;99.90;;;1.52;96.65;99087.91;2568716;30;139320;-40
2021/11/28 01:51:27;;;;;;;8.50;4.20;;;3.30;99.90;;;1.52;96.56;99087.06;2568937;30;138482;-40
2021/11/28 01:53:55;;;;;;;7.38;3.78;;;3.30;99.90;;;1.49;96.84;99087.47;2565794;30;139913;-40
2021/11/28 01:56:27;;;;;;;7.82;3.88;;;3.30;99.90;;;1.46;96.68;99085.16;2567883;30;138686;-40
2021/11/28 01:58:59;;;;;;;8.43;4.40;;;3.30;99.90;;;1.38;96.83;99081.59;2569232;30;137413;-40
2021/11/28 02:01:26;;;;;;;8.73;4.40;;;3.30;99.90;;;1.39;97.05;99087.81;2568391;30;139644;-40
2021/11/28 02:03:55;;;;;;;6.85;3.78;;;3.20;99.90;;;1.31;96.77;99087.94;2563955;30;139325;-40
2021/11/28 02:06:23;;;;;;;7.70;4.00;;;3.20;99.90;;;1.35;96.79;99091.91;2567041;30;138584;-40
2021/11/28 02:08:52;;;;;;;7.93;4.00;;;3.20;99.90;;;1.32;96.85;99085.06;2565686;30;140765;-40
2021/11/28 02:11:20;;;;;;;7.80;4.15;;;3.20;99.90;;;1.28;97.01;99081.09;2567551;30;138852;-40
2021/11/28 02:13:49;;;;;;;11.80;4.15;;;3.10;99.90;;;1.24;97.52;99080.66;2565317;30;139355;-40
2021/11/28 02:16:17;;;;;;;7.03;4.03;;;3.10;99.90;;;1.19;97.39;99083.09;2568709;30;136811;-40
2021/11/28 02:18:45;;;;;;;8.85;3.97;;;3.10;99.90;;;1.13;97.75;99078.50;2565948;30;139324;-40
2021/11/28 02:21:14;;;;;;;6.85;3.83;;;3.00;99.90;;;1.12;98.17;99091.09;2567801;30;139264;-40
2021/11/28 02:23:42;;;;;;;7.47;3.95;;;3.00;99.90;;;1.08;98.05;99083.63;2567807;30;139645;-40
2021/11/28 02:26:17;;;;;;;7.78;4.22;;;3.00;99.90;;;1.04;97.89;99093.94;2567579;30;137344;-40
2021/11/28 02:28:46;;;;;;;8.57;3.80;;;2.90;99.90;;;0.98;98.36;99086.66;2566879;30;139384;-40
2021/11/28 02:31:15;;;;;;;10.10;4.13;;;2.90;99.90;;;0.93;98.86;99089.91;2568073;30;138065;-40
2021/11/28 02:33:44;;;;;;;5.82;3.80;;;2.80;99.90;;;0.83;99.37;99089.41;2568052;30;140524;-40
2021/11/28 02:36:13;;;;;;;6.60;3.70;;;2.80;99.90;;;0.78;99.80;99081.91;2567256;30;137665;-40
2021/11/28 02:38:41;;;;;;;7.35;4.10;;;2.70;99.90;;;0.73;100.00;99091.53;2568291;30;138330;-40
2021/11/28 02:41:10;;;;;;;7.22;3.47;;;2.70;99.90;;;0.65;100.00;99087.97;2568291;30;138700;-40
2021/11/28 02:43:42;;;;;;;7.43;4.07;;;2.60;99.90;;;0.43;100.00;99071.84;2566643;30;140690;-40
2021/11/28 02:46:11;;;;;;;6.20;3.53;;;2.50;99.90;;;0.46;100.00;99091.25;2565011;30;139540;-40
2021/11/28 02:48:39;;;;;;;8.10;3.55;;;2.40;99.90;;;0.39;100.00;99094.69;2567230;30;140199;-40
2021/11/28 02:51:07;;;;;;;7.93;4.07;;;2.30;99.90;;;0.29;100.00;99094.19;2567358;30;137753;-40
2021/11/28 02:53:36;;;;;;;6.68;3.72;;;2.30;99.90;;;0.17;100.00;99090.28;2565713;30;138557;-40
2021/11/28 02:56:05;;;;;;;6.95;3.65;;;2.10;99.90;;;0.06;100.00;99088.91;2568426;30;137559;-40
2021/11/28 02:58:36;;;;;;;5.68;3.17;;;2.00;99.90;;;-0.11;99.97;99081.09;2567007;30;139773;-40
2021/11/28 03:01:16;;;;;;;6.30;3.30;;;1.90;99.90;;;-0.18;99.86;99086.34;2566475;30;139049;-40
2021/11/28 03:04:10;;;;;;;7.80;3.65;;;1.80;99.90;;;-0.27;100.00;99092.00;2565550;30;137917;-40
2021/11/28 03:06:40;;;;;;;7.20;3.58;;;1.80;99.90;;;-0.39;100.00;99091.59;2579613;30;137528;-39
2021/11/28 03:09:07;;;;;;;7.70;3.50;;;1.70;99.90;;;-0.44;100.00;99098.34;2568903;30;137965;-41
2021/11/28 03:11:35;;;;;;;5.55;3.17;;;1.60;99.90;;;-0.49;100.00;99091.88;2568763;30;139164;-39
2021/11/28 03:14:03;;;;;;;5.75;3.35;;;1.50;99.90;;;-0.61;100.00;99086.13;2570258;30;138118;-39
2021/11/28 03:16:31;;;;;;;6.13;3.42;;;1.40;99.90;;;-0.62;100.00;99092.50;2572175;30;138323;-39
2021/11/28 03:18:59;;;;;;;7.38;3.95;;;1.40;99.90;;;-0.67;100.00;99089.53;2569070;30;140930;-39
2021/11/28 03:21:34;;;;;;;5.25;3.53;;;1.30;99.90;;;-0.73;100.00;99093.78;2572129;30;138367;-39
2021/11/28 03:24:05;;;;;;;7.07;3.40;;;1.20;99.90;;;-0.77;100.00;99097.81;2571117;30;137522;-41
2021/11/28 03:26:41;;;;;;;6.78;3.35;;;1.20;99.90;;;-0.78;100.00;99101.53;2569766;30;137008;-40
2021/11/28 03:29:17;;;;;;;7.35;3.80;;;1.20;99.90;;;-0.79;100.00;99102.53;2570390;30;139647;-39
2021/11/28 03:32:14;;;;;;;5.90;3.67;;;1.20;99.90;;;-0.80;100.00;99111.59;2569704;30;136849;-39
2021/11/28 03:35:08;;;;;;;6.20;3.50;;;1.10;99.90;;;-0.86;100.00;99110.44;2569723;30;137452;-39
2021/11/28 03:37:36;;;;;;;8.57;3.92;;;1.10;99.90;;;-0.86;100.00;99107.78;2569869;30;138979;-38
2021/11/28 03:40:08;;;;;;;8.30;3.60;;;1.10;99.90;;;-0.86;100.00;99110.44;2569212;30;137483;-39
2021/11/28 03:42:36;;;;;;;6.57;3.70;;;1.10;99.90;;;-0.86;100.00;99115.81;2567757;30;139469;-39
2021/11/28 03:45:11;;;;;;;7.53;3.63;;;1.10;99.90;;;-0.90;100.00;99122.53;2568092;30;140611;-39
2021/11/28 03:47:44;;;;;;;5.00;3.00;;;1.10;99.90;;;-0.97;100.00;99117.06;2569970;30;138230;-39
2021/11/28 03:50:11;;;;;;;6.53;3.67;;;1.00;99.90;;;-0.95;100.00;99125.75;2568975;30;140025;-42
2021/11/28 03:52:39;;;;;;;5.93;3.35;;;1.00;99.90;;;-0.95;100.00;99120.38;2569299;30;139209;-39
2021/11/28 03:55:09;;;;;;;7.25;3.70;;;1.00;99.90;;;-0.94;100.00;99126.59;2567735;30;138438;-39
2021/11/28 03:57:37;;;;;;;7.78;3.58;;;1.00;99.90;;;-0.94;100.00;99130.09;2569349;30;139287;-38
2021/11/28 04:00:11;;;;;;;6.22;3.72;;;1.00;99.90;;;-0.92;100.00;99140.63;2568147;30;138242;-39
2021/11/28 04:02:47;;;;;;;7.05;4.03;;;1.00;99.90;;;-0.88;100.00;99136.56;2568179;30;136870;-39
2021/11/28 04:05:20;;;;;;;9.23;4.28;;;1.00;99.90;;;-0.88;100.00;99145.47;2568706;30;140136;-40
2021/11/28 04:07:53;;;;;;;7.57;3.90;;;1.00;99.90;;;-0.84;100.00;99147.78;2566999;30;139083;-39
2021/11/28 04:10:22;;;;;;;8.50;4.13;;;1.00;99.90;;;-0.81;100.00;99147.41;2569226;30;139440;-39
2021/11/28 04:12:50;;;;;;;9.02;4.20;;;1.10;99.90;;;-0.77;100.00;99143.34;2569551;30;138386;-39
2021/11/28 04:15:18;;;;;;;6.07;3.53;;;1.10;99.90;;;-0.74;100.00;99143.00;2569974;30;139709;-39
2021/11/28 04:17:55;;;;;;;6.97;3.90;;;1.10;99.90;;;-0.75;100.00;99139.50;2570922;30;137288;-39
2021/11/28 04:20:23;;;;;;;7.75;4.35;;;1.20;99.90;;;-0.68;100.00;99146.81;2569639;30;139037;-39
2021/11/28 04:22:51;;;;;;;9.07;4.55;;;1.20;99.90;;;-0.64;100.00;99142.75;2570551;30;138028;-39
2021/11/28 04:25:19;;;;;;;7.97;3.70;;;1.20;99.90;;;-0.61;100.00;99150.41;2567398;30;139101;-41
2021/11/28 04:27:46;;;;;;;7.70;3.92;;;1.20;99.90;;;-0.61;100.00;99143.22;2569832;30;139756;-39
2021/11/28 04:30:15;;;;;;;9.70;4.25;;;1.30;99.90;;;-0.63;100.00;99141.72;2569561;30;138821;-39
2021/11/28 04:32:42;;;;;;;8.38;4.03;;;1.30;99.90;;;-0.56;100.00;99153.38;2571532;30;139723;-39
2021/11/28 04:35:10;;;;;;;7.78;4.05;;;1.30;99.90;;;-0.55;100.00;99152.38;2567143;30;139897;-39
2021/11/28 04:37:39;;;;;;;6.85;4.28;;;1.30;99.90;;;-0.51;100.00;99152.84;2568513;30;139205;-39
2021/11/28 04:40:09;;;;;;;8.45;4.25;;;1.40;99.90;;;-0.50;100.00;99146.47;2569237;30;139323;-39
2021/11/28 04:42:40;;;;;;;9.75;4.22;;;1.40;99.90;;;-0.48;100.00;99152.47;2567176;30;138591;-39
2021/11/28 04:45:11;;;;;;;8.27;4.25;;;1.40;99.90;;;-0.46;100.00;99161.16;2568178;30;136890;-39
2021/11/28 04:47:40;;;;;;;11.98;5.03;;;1.40;99.90;;;-0.45;100.00;99163.69;2566510;30;139514;-39
2021/11/28 04:50:12;;;;;;;7.35;4.07;;;1.40;99.90;;;-0.42;100.00;99167.84;2571218;30;140487;-39
2021/11/28 04:52:41;;;;;;;7.43;4.05;;;1.50;99.90;;;-0.37;100.00;99169.97;2569087;30;138830;-40
2021/11/28 04:55:14;;;;;;;7.18;4.13;;;1.50;99.90;;;-0.35;100.00;99171.47;2570311;30;139828;-39
2021/11/28 04:57:43;;;;;;;6.22;3.95;;;1.50;99.90;;;-0.32;100.00;99170.25;2569211;30;136808;-39
2021/11/28 05:00:22;;;;;;;9.15;4.70;;;1.60;99.90;;;-0.30;100.00;99177.13;2568684;30;138327;-39
2021/11/28 05:02:55;;;;;;;8.02;3.88;;;1.60;99.90;;;-0.28;100.00;99174.22;2570735;30;137666;-39
2021/11/28 05:05:25;;;;;;;8.00;4.40;;;1.60;99.90;;;-0.28;100.00;99174.22;2568120;30;141328;-39
2021/11/28 05:07:54;;;;;;;7.40;4.00;;;1.60;99.90;;;-0.25;100.00;99171.22;2567481;30;136771;-39
2021/11/28 05:10:22;;;;;;;9.13;4.40;;;1.60;99.90;;;-0.22;100.00;99167.31;2569403;30;138047;-39
2021/11/28 05:12:53;;;;;;;7.60;4.15;;;1.70;99.90;;;-0.23;100.00;99163.81;2568534;30;139795;-39
2021/11/28 05:15:21;;;;;;;6.43;4.03;;;1.70;99.90;;;-0.16;100.00;99166.59;2569586;30;138758;-41
2021/11/28 05:18:24;;;;;;;6.90;3.72;;;1.70;99.90;;;-0.16;100.00;99175.47;2568554;30;137079;-40
2021/11/28 05:21:18;;;;;;;7.88;4.13;;;1.70;99.90;;;-0.16;100.00;99177.31;2568688;30;136969;-39
2021/11/28 05:23:46;;;;;;;6.35;3.85;;;1.70;99.90;;;-0.15;100.00;99178.97;2569120;30;139643;-39
2021/11/28 05:26:14;;;;;;;8.98;4.22;;;1.70;99.90;;;-0.15;100.00;99176.28;2569312;30;138345;-39
2021/11/28 05:28:42;;;;;;;7.20;4.07;;;1.70;99.90;;;-0.12;100.00;99177.78;2569207;30;138200;-41
2021/11/28 05:31:16;;;;;;;7.65;4.05;;;1.80;99.90;;;-0.10;100.00;99183.78;2569316;30;140429;-39
2021/11/28 05:34:10;;;;;;;6.00;4.07;;;1.70;99.90;;;-0.08;100.00;99184.44;2569615;30;136891;-39
2021/11/28 05:36:56;;;;;;;8.30;4.20;;;1.80;99.90;;;-0.07;100.00;99188.78;2569516;30;137244;-39
2021/11/28 05:39:24;;;;;;;8.23;4.30;;;1.80;99.90;;;-0.10;100.00;99190.00;2569793;30;138338;-39
2021/11/28 05:41:53;;;;;;;8.85;4.50;;;1.80;99.90;;;-0.04;100.00;99201.81;2569341;30;139562;-39
2021/11/28 05:44:21;;;;;;;6.13;3.78;;;1.80;99.90;;;-0.04;100.00;99199.13;2568462;30;137603;-38
2021/11/28 05:47:21;;;;;;;8.73;4.00;;;1.80;99.90;;;-0.01;100.00;99202.28;2571697;30;137178;-41
2021/11/28 05:50:09;;;;;;;7.75;3.90;;;1.90;99.90;;;-0.04;100.00;99196.47;2569931;30;136801;-39
2021/11/28 05:52:45;;;;;;;7.07;4.10;;;1.80;99.90;;;0.02;100.00;99205.63;2568466;30;141462;-39
2021/11/28 05:55:14;;;;;;;8.05;4.28;;;1.90;99.90;;;0.03;100.00;99201.94;2567650;30;139149;-39
2021/11/28 05:57:47;;;;;;;7.82;4.13;;;1.90;99.90;;;0.05;100.00;99206.09;2566939;30;139639;-39
2021/11/28 06:00:19;;;;;;;7.80;4.25;;;1.90;99.90;;;0.06;100.00;99206.91;2573885;30;137571;-39
2021/11/28 06:02:55;;;;;;;8.73;4.57;;;1.90;99.90;;;0.07;100.00;99213.94;2569472;30;137017;-39
2021/11/28 06:05:40;;;;;;;6.85;3.58;;;1.90;99.90;;;0.08;100.00;99213.78;2571912;30;137369;-39
2021/11/28 06:08:46;;;;;;;12.48;4.40;;;1.90;99.90;;;0.08;100.00;99219.16;2569073;30;137208;-39
2021/11/28 06:11:14;;;;;;;9.45;4.00;;;2.00;99.90;;;0.07;100.00;99225.53;2569747;30;136791;-40
2021/11/28 06:13:41;;;;;;;7.57;4.15;;;1.90;99.90;;;0.08;100.00;99219.16;2569905;30;138946;-39
2021/11/28 06:16:18;;;;;;;8.05;4.47;;;2.00;99.90;;;0.06;100.00;99218.50;2571335;30;136882;-41
2021/11/28 06:19:04;;;;;;;8.88;4.43;;;1.90;99.90;;;0.04;100.00;99214.31;2569497;30;136972;-41
2021/11/28 06:22:09;;;;;;;7.00;3.80;;;2.00;99.90;;;0.11;100.00;99217.94;2572654;30;136971;-39
2021/11/28 06:24:48;;;;;;;6.72;3.83;;;2.00;99.90;;;0.12;100.00;99220.44;2571205;30;139619;-39
2021/11/28 06:27:21;;;;;;;6.32;3.50;;;2.00;99.90;;;0.13;100.00;99224.78;2570031;30;139982;-39
2021/11/28 06:29:50;;;;;;;6.57;3.78;;;2.00;99.90;;;0.13;100.00;99230.16;2568846;30;138255;-39
2021/11/28 06:32:26;;;;;;;7.30;4.20;;;2.00;99.90;;;0.11;100.00;99221.47;2568825;30;137602;-39
2021/11/28 06:35:13;;;;;;;9.00;4.53;;;2.00;99.90;;;0.13;100.00;99235.50;2567865;30;136836;-39
2021/11/28 06:38:10;;;;;;;9.43;4.53;;;2.00;99.90;;;0.16;100.00;99237.00;2568385;30;136774;-39
2021/11/28 06:40:56;;;;;;;10.07;4.22;;;2.00;99.90;;;0.17;100.00;99236.00;2567704;30;136838;-39
2021/11/28 06:43:27;;;;;;;7.85;4.72;;;2.00;99.90;;;0.18;100.00;99242.19;2569562;30;138519;-39
2021/11/28 06:45:54;;;;;;;7.95;4.15;;;2.00;99.90;;;0.20;100.00;99240.13;2569026;30;137961;-39
2021/11/28 06:48:22;;;;;;;8.68;4.60;;;2.00;99.90;;;0.21;100.00;99247.16;2566405;30;139977;-39
2021/11/28 06:51:09;;;;;;;10.02;4.93;;;2.10;99.90;;;0.24;100.00;99253.00;2568783;30;139436;-39
2021/11/28 06:53:36;;;;;;;8.35;4.72;;;2.10;99.90;;;0.24;100.00;99254.84;2567004;30;139392;-39
2021/11/28 06:56:22;;;;;;;6.88;4.43;;;2.10;99.90;;;0.21;100.00;99248.00;2568200;30;136847;-39
2021/11/28 06:58:58;;;;;;;7.22;4.18;;;2.10;99.90;;;0.26;100.00;99250.13;2570569;30;136765;-41
2021/11/28 07:01:27;;;;;;;8.50;3.95;;;2.10;99.90;;;0.27;100.00;99257.19;2567726;30;138578;-39
2021/11/28 07:04:17;;;;;;;7.70;4.15;;;2.10;99.90;;;0.27;100.00;99258.00;2568008;30;136778;-41
2021/11/28 07:07:08;;;;;;;6.55;4.05;;;2.10;99.90;;;0.29;100.00;99255.16;2570321;30;137066;-39
2021/11/28 07:09:38;;;;;;;8.13;3.90;;;2.10;99.90;;;0.32;100.00;99252.09;2569839;30;136640;-39
2021/11/28 07:12:06;;;;;;;6.43;4.38;;;2.10;99.90;;;0.32;100.00;99257.47;2570784;30;137440;-39
2021/11/28 07:14:36;;;;;;;9.90;4.22;;;2.20;99.90;;;0.18;100.00;99236.81;2568665;30;138703;-39
2021/11/28 07:17:04;;;;;;;;;;;2.10;99.90;;;0.32;100.00;99260.16;2570595;30;139791;-39
2021/11/28 07:19:35;;;;;;;8.63;4.10;;;2.10;99.90;;;0.33;100.00;99259.13;2568357;30;137654;-38
2021/11/28 07:22:33;;;;;;;7.07;3.80;;;2.20;99.90;;;0.35;100.00;99269.66;2568236;30;137205;-39
2021/11/28 07:25:03;;;;;;;6.75;4.10;;;2.20;99.90;;;0.34;100.00;99266.16;2567771;30;138226;-41
2021/11/28 07:27:31;;;;;;;7.82;4.43;;;2.20;99.90;;;0.36;100.00;99266.81;2570103;30;141607;-39
2021/11/28 07:30:01;;;;;;;6.75;4.13;;;2.20;99.90;;;0.39;100.00;99273.63;2568975;30;139868;-39
2021/11/28 07:32:29;;;;;;;7.40;4.07;;;2.20;99.90;;;0.39;100.00;99271.81;2568480;30;140315;-39
2021/11/28 07:35:11;;;;;;;7.10;4.15;;;2.20;99.90;;;0.38;100.00;99278.19;2568825;30;136782;-38
2021/11/28 07:38:00;;;;;;;8.70;4.18;;;2.20;99.90;;;0.39;100.00;99270.94;2570012;30;140988;-39
2021/11/28 07:40:28;;;;;;;7.50;4.30;;;2.20;99.90;;;0.41;100.00;99275.13;2568200;30;138927;-40
2021/11/28 07:43:22;;;;;;;8.90;4.07;;;2.20;99.90;;;0.41;100.00;99271.63;2568794;30;137412;-38
2021/11/28 07:46:08;;;;;;;8.82;3.90;;;2.30;99.90;;;0.38;100.00;99278.19;2569296;30;136771;-40
2021/11/28 07:48:53;;;;;;;7.15;4.25;;;2.30;99.90;;;0.46;100.00;99281.78;2568730;30;137732;-39
2021/11/28 07:51:22;;;;;;;8.77;4.45;;;2.30;99.90;;;0.47;100.00;99284.31;2570032;30;138062;-39
2021/11/28 07:53:51;;;;;;;10.23;4.40;;;2.30;99.90;;;0.50;100.00;99288.44;2571318;30;139174;-39
2021/11/28 07:56:22;;;;;;;8.10;4.85;;;2.30;99.90;;;0.51;100.00;99290.13;2570786;30;139128;-39
2021/11/28 07:59:08;;;;;;;9.32;4.22;;;2.30;99.90;;;0.51;100.00;99295.47;2571500;30;137012;-39
2021/11/28 08:01:40;;;;;;;7.25;4.40;;;2.30;99.90;;;0.50;100.00;99300.03;2567024;30;137828;-39
2021/11/28 08:04:26;;;;;;;6.80;4.28;;;2.30;99.90;;;0.52;100.00;99299.84;2570379;30;137381;-39
2021/11/28 08:07:25;;;;;;;7.55;4.07;;;2.30;99.90;;;0.58;100.00;99312.53;2570657;30;136691;-39
2021/11/28 08:09:53;;;;;;;10.73;4.93;;;2.40;99.90;;;0.61;100.00;99308.63;2568841;30;137049;-38
2021/11/28 08:12:21;;;;;;;8.52;4.03;;;2.40;99.90;;;0.57;100.00;99292.09;2570922;30;138554;-39
2021/11/28 08:14:49;;;;;;;8.70;4.55;;;2.40;99.90;;;0.68;100.00;99307.72;2569754;30;139190;-39
2021/11/28 08:17:17;;;;;;;;;;;2.50;99.90;;;0.70;100.00;99311.03;2572549;30;136936;-39
2021/11/28 08:19:45;;;;;;;8.77;4.20;;;2.50;99.90;;;0.71;100.00;99315.41;2570446;30;139630;-39
2021/11/28 08:22:12;;;;;;;8.63;4.25;;;2.50;99.90;;;0.71;100.00;99304.66;2569975;30;137730;-39
2021/11/28 08:24:40;;;;;;;9.13;5.07;;;2.50;99.90;;;0.78;100.00;99311.97;2570938;30;138107;-39
2021/11/28 08:27:09;;;;;;;7.63;4.57;;;2.60;99.90;;;0.83;100.00;99317.63;2569376;30;137334;-39
2021/11/28 08:29:37;;;;;;;8.57;4.45;;;2.60;99.90;;;0.89;100.00;99316.88;2568665;30;138344;-39
2021/11/28 08:32:20;;;;;;;8.40;4.15;;;2.60;99.90;;;0.96;100.00;99314.28;2571646;30;138549;-41
2021/11/28 08:35:09;;;;;;;8.32;4.85;;;2.70;99.90;;;1.04;100.00;99316.88;2567662;30;136874;-39
2021/11/28 08:37:46;;;;;;;7.95;4.65;;;2.70;99.90;;;1.13;100.00;99314.91;2571635;30;137792;-39
2021/11/28 08:40:18;;;;;;;9.18;5.18;;;2.80;99.90;;;1.21;100.00;99327.41;2569625;30;137468;-39
2021/11/28 08:42:45;;;;;;;8.05;4.50;;;2.90;99.90;;;1.27;100.00;99324.78;2569825;30;137805;-39
2021/11/28 08:45:14;;;;;;;7.63;4.70;;;3.00;99.90;;;1.36;100.00;99324.69;2570719;30;138929;-44
2021/11/28 08:47:44;;;;;;;8.90;5.07;;;3.00;99.90;;;1.42;100.00;99324.75;2567844;30;140073;-39
2021/11/28 08:50:14;;;;;;;9.40;5.60;;;3.10;99.90;;;1.50;100.00;99333.75;2570608;30;138101;-39
2021/11/28 08:52:45;;;;;;;13.13;6.68;;;3.20;99.90;;;1.56;100.00;99336.47;2567188;30;137205;-39
2021/11/28 08:55:15;;;;;;;10.45;6.15;;;3.20;99.90;;;1.57;100.00;99338.16;2571015;30;137724;-39
2021/11/28 08:57:44;;;;;;;16.63;6.38;;;3.30;99.90;;;1.63;100.00;99341.13;2571120;30;137963;-39
2021/11/28 09:00:15;;;;;;;13.05;6.80;;;3.30;99.90;;;1.62;100.00;99339.47;2569537;30;138322;-41
2021/11/28 09:02:49;;;;;;;12.05;6.68;;;3.30;99.90;;;1.63;100.00;99336.56;2569694;30;137223;-39
2021/11/28 09:05:19;;;;;;;16.83;7.35;;;3.30;99.90;;;1.67;100.00;99342.41;2582430;30;139123;-40
2021/11/28 09:07:49;;;;;;;11.13;6.45;;;3.40;99.90;;;1.70;100.00;99344.72;2567962;30;136699;-40
2021/11/28 09:10:19;;;;;;;11.90;7.07;;;3.40;99.90;;;1.72;100.00;99339.97;2568227;30;137587;-40
2021/11/28 09:12:47;;;;;;;15.65;8.32;;;3.40;99.90;;;1.76;100.00;99351.19;2568913;30;136883;-40
2021/11/28 09:15:17;;;;;;;14.05;7.30;;;3.40;99.90;;;1.84;100.00;99351.06;2567246;30;137321;-40
2021/11/28 09:17:55;;;;;;;14.57;7.75;;;3.50;99.90;;;1.91;100.00;99343.06;2567806;30;139380;-40
2021/11/28 09:20:24;;;;;;;14.60;7.50;;;3.60;99.90;;;1.98;100.00;99352.03;2568319;30;138922;-40
2021/11/28 09:25:27;;;;;;;13.63;7.13;;;3.70;99.90;;;2.09;100.00;99351.47;2567114;30;138516;-40
2021/11/28 09:27:57;;;;;;;11.68;6.50;;;3.70;99.90;;;2.12;100.00;99351.13;2568348;30;138547;-40
2021/11/28 09:30:26;;;;;;;14.30;6.38;;;3.80;99.90;;;2.17;100.00;99361.28;2568191;30;138187;-40
2021/11/28 09:32:56;;;;;;;11.07;6.35;;;3.80;99.90;;;2.21;100.00;99361.75;2569075;30;137059;-40
2021/11/28 09:35:24;;;;;;;11.30;6.55;;;3.80;99.90;;;2.19;100.00;99347.66;2567690;30;138156;-40
2021/11/28 09:37:54;;;;;;;13.45;6.80;;;3.90;99.90;;;2.26;99.56;99368.22;2569131;30;138448;-40
2021/11/28 09:40:23;;;;;;;10.93;6.53;;;3.90;99.90;;;2.29;99.48;99364.28;2568720;30;138266;-40
2021/11/28 09:42:55;;;;;;;12.95;6.93;;;3.90;99.90;;;2.34;99.27;99361.84;2565746;30;137964;-40
2021/11/28 09:45:26;;;;;;;10.65;6.53;;;4.00;99.90;;;2.36;98.71;99367.03;2568155;30;138421;-40
2021/11/28 09:47:57;;;;;;;12.82;6.75;;;4.00;99.90;;;2.33;97.43;99367.44;2568989;30;138178;-40
2021/11/28 09:50:26;;;;;;;11.75;6.65;;;4.00;99.90;;;2.33;96.87;99373.63;2567289;30;137201;-40
2021/11/28 09:52:56;;;;;;;13.25;7.45;;;4.00;99.90;;;2.36;96.96;99367.88;2566225;30;137643;-40
2021/11/28 09:55:26;;;;;;;12.75;7.13;;;4.00;99.90;;;2.42;97.42;99364.41;2568441;30;139332;-40
2021/11/28 09:57:56;;;;;;;12.88;7.60;;;4.10;99.90;;;2.46;97.10;99370.22;2568573;30;137477;-40
2021/11/28 10:00:25;;;;;;;12.15;6.95;;;4.10;99.90;;;2.56;96.61;99373.44;2566923;30;139058;-40
2021/11/28 10:02:53;;;;;;;11.57;7.47;;;4.10;99.90;;;2.64;96.67;99366.22;2568706;30;137907;-40
2021/11/28 10:05:21;;;;;;;12.88;8.00;;;4.20;99.90;;;2.70;96.90;99366.28;2567447;30;138255;-40
2021/11/28 10:07:50;;;;;;;13.55;7.60;;;4.30;99.90;;;2.75;96.91;99368.38;2568349;30;137924;-40
2021/11/28 10:10:21;;;;;;;11.10;7.15;;;4.30;99.90;;;2.80;96.38;99351.63;2567595;30;139143;-40
2021/11/28 10:12:52;;;;;;;13.52;7.50;;;4.30;99.90;;;2.88;95.80;99362.22;2567179;30;138190;-40
2021/11/28 10:15:28;;;;;;;13.73;8.23;;;4.40;99.90;;;2.96;95.99;99362.09;2567067;30;137981;-40
2021/11/28 10:17:58;;;;;;;12.40;7.70;;;4.50;99.90;;;3.00;95.52;99365.19;2567486;30;137838;-40
2021/11/28 10:20:27;;;;;;;17.75;8.98;;;4.50;99.90;;;3.04;94.42;99361.06;2565772;30;138384;-40
2021/11/28 10:22:55;;;;;;;15.13;8.40;;;4.60;99.90;;;3.02;93.75;99366.69;2567931;30;137517;-40
2021/11/28 10:25:30;;;;;;;14.20;8.45;;;4.60;99.90;;;3.05;93.67;99364.63;2567452;30;139219;-40
2021/11/28 10:28:04;;;;;;;14.80;8.10;;;4.60;99.90;;;3.08;92.89;99364.22;2567025;30;137772;-40
2021/11/28 10:30:44;;;;;;;18.00;10.20;;;4.60;99.90;;;3.10;93.22;99370.22;2567417;30;137284;-40
2021/11/28 10:33:20;;;;;;;15.43;9.00;;;4.70;99.90;;;3.10;92.59;99370.22;2569273;30;136948;-40
2021/11/28 10:36:10;;;;;;;15.07;8.30;;;4.70;99.90;;;3.10;92.30;99363.00;2563631;30;138307;-40
2021/11/28 10:38:44;;;;;;;17.77;9.88;;;4.70;99.90;;;3.17;92.79;99371.09;2566850;30;137207;-40
2021/11/28 10:41:25;;;;;;;15.70;9.93;;;4.70;99.90;;;3.20;93.65;99369.88;2567681;30;138168;-40
2021/11/28 10:43:55;;;;;;;20.77;10.50;;;4.80;99.90;;;3.23;92.84;99366.78;2567297;30;136733;-40
2021/11/28 10:46:33;;;;;;;23.92;11.15;;;4.80;99.90;;;3.22;92.27;99365.09;2568420;30;138087;-40
2021/11/28 10:49:08;;;;;;;21.20;12.15;;;4.80;99.90;;;3.31;93.02;99361.19;2567228;30;137445;-40
2021/11/28 10:51:42;;;;;;;21.23;11.60;;;4.90;99.90;;;3.31;92.75;99350.41;2567715;30;138524;-40